sensor_id;sensor_type;location;lat;lon;timestamp;P1;durP1;ratioP1;P2;durP2;ratioP2
7989;SDS011;4040;42.848;23.034;2024-02-21T00:01:22;6.13;;;5.00;;
7989;SDS011;4040;42.848;23.034;2024-02-21T00:03:50;10.43;;;4.73;;
7989;SDS011;4040;42.848;23.034;2024-02-21T00:06:17;7.33;;;5.07;;
7989;SDS011;4040;42.848;23.034;2024-02-21T00:08:44;3.47;;;3.17;;
7989;SDS011;4040;42.848;23.034;2024-02-21T00:11:12;4.57;;;3.47;;
7989;SDS011;4040;42.848;23.034;2024-02-21T00:13:41;6.60;;;3.63;;
7989;SDS011;4040;42.848;23.034;2024-02-21T00:16:08;7.80;;;4.17;;
7989;SDS011;4040;42.848;23.034;2024-02-21T00:18:36;5.30;;;3.47;;
7989;SDS011;4040;42.848;23.034;2024-02-21T00:21:04;5.83;;;4.07;;
7989;SDS011;4040;42.848;23.034;2024-02-21T00:23:31;5.97;;;4.03;;
7989;SDS011;4040;42.848;23.034;2024-02-21T00:25:59;8.83;;;4.77;;
7989;SDS011;4040;42.848;23.034;2024-02-21T00:28:26;11.90;;;5.70;;
7989;SDS011;4040;42.848;23.034;2024-02-21T00:30:55;8.93;;;4.07;;
7989;SDS011;4040;42.848;23.034;2024-02-21T00:33:22;7.77;;;4.97;;
7989;SDS011;4040;42.848;23.034;2024-02-21T00:35:50;8.03;;;4.87;;
7989;SDS011;4040;42.848;23.034;2024-02-21T00:38:17;7.40;;;4.47;;
7989;SDS011;4040;42.848;23.034;2024-02-21T00:40:45;7.30;;;4.93;;
7989;SDS011;4040;42.848;23.034;2024-02-21T00:43:12;10.67;;;5.40;;
7989;SDS011;4040;42.848;23.034;2024-02-21T00:45:40;15.67;;;6.70;;
7989;SDS011;4040;42.848;23.034;2024-02-21T00:48:09;18.90;;;7.53;;
7989;SDS011;4040;42.848;23.034;2024-02-21T00:50:37;11.93;;;6.43;;
7989;SDS011;4040;42.848;23.034;2024-02-21T00:53:04;10.63;;;5.53;;
7989;SDS011;4040;42.848;23.034;2024-02-21T00:55:32;10.57;;;5.67;;
7989;SDS011;4040;42.848;23.034;2024-02-21T00:57:59;15.57;;;6.40;;
7989;SDS011;4040;42.848;23.034;2024-02-21T01:00:27;9.67;;;5.73;;
7989;SDS011;4040;42.848;23.034;2024-02-21T01:02:54;8.07;;;4.57;;
7989;SDS011;4040;42.848;23.034;2024-02-21T01:05:23;6.57;;;3.53;;
7989;SDS011;4040;42.848;23.034;2024-02-21T01:07:52;7.30;;;4.63;;
7989;SDS011;4040;42.848;23.034;2024-02-21T01:10:20;9.87;;;5.77;;
7989;SDS011;4040;42.848;23.034;2024-02-21T01:12:48;11.27;;;6.70;;
7989;SDS011;4040;42.848;23.034;2024-02-21T01:15:15;10.47;;;5.63;;
7989;SDS011;4040;42.848;23.034;2024-02-21T01:17:43;11.20;;;5.23;;
7989;SDS011;4040;42.848;23.034;2024-02-21T01:20:10;8.43;;;5.20;;
7989;SDS011;4040;42.848;23.034;2024-02-21T01:22:39;6.30;;;4.73;;
7989;SDS011;4040;42.848;23.034;2024-02-21T01:25:07;7.13;;;4.60;;
7989;SDS011;4040;42.848;23.034;2024-02-21T01:27:35;6.47;;;4.53;;
7989;SDS011;4040;42.848;23.034;2024-02-21T01:30:03;10.00;;;4.50;;
7989;SDS011;4040;42.848;23.034;2024-02-21T01:32:31;8.37;;;5.30;;
7989;SDS011;4040;42.848;23.034;2024-02-21T01:34:58;11.30;;;7.03;;
7989;SDS011;4040;42.848;23.034;2024-02-21T01:37:26;8.27;;;4.63;;
7989;SDS011;4040;42.848;23.034;2024-02-21T01:39:55;6.97;;;4.93;;
7989;SDS011;4040;42.848;23.034;2024-02-21T01:42:22;6.27;;;4.33;;
7989;SDS011;4040;42.848;23.034;2024-02-21T01:44:50;6.67;;;4.47;;
7989;SDS011;4040;42.848;23.034;2024-02-21T01:47:17;7.53;;;4.80;;
7989;SDS011;4040;42.848;23.034;2024-02-21T01:49:45;11.60;;;5.63;;
7989;SDS011;4040;42.848;23.034;2024-02-21T01:52:14;9.57;;;5.40;;
7989;SDS011;4040;42.848;23.034;2024-02-21T01:54:43;11.13;;;6.63;;
7989;SDS011;4040;42.848;23.034;2024-02-21T01:57:12;7.00;;;4.60;;
7989;SDS011;4040;42.848;23.034;2024-02-21T01:59:40;7.10;;;4.80;;
7989;SDS011;4040;42.848;23.034;2024-02-21T02:02:07;7.83;;;5.10;;
7989;SDS011;4040;42.848;23.034;2024-02-21T02:04:37;11.07;;;4.77;;
7989;SDS011;4040;42.848;23.034;2024-02-21T02:07:06;5.43;;;4.93;;
7989;SDS011;4040;42.848;23.034;2024-02-21T02:09:34;5.20;;;4.33;;
7989;SDS011;4040;42.848;23.034;2024-02-21T02:12:01;6.67;;;4.43;;
7989;SDS011;4040;42.848;23.034;2024-02-21T02:14:31;7.73;;;5.03;;
7989;SDS011;4040;42.848;23.034;2024-02-21T02:16:58;4.40;;;3.53;;
7989;SDS011;4040;42.848;23.034;2024-02-21T02:19:26;6.50;;;4.20;;
7989;SDS011;4040;42.848;23.034;2024-02-21T02:21:53;4.03;;;3.17;;
7989;SDS011;4040;42.848;23.034;2024-02-21T02:24:28;6.50;;;4.17;;
7989;SDS011;4040;42.848;23.034;2024-02-21T02:26:55;3.47;;;3.13;;
7989;SDS011;4040;42.848;23.034;2024-02-21T02:29:23;5.60;;;3.97;;
7989;SDS011;4040;42.848;23.034;2024-02-21T02:31:50;7.53;;;4.70;;
7989;SDS011;4040;42.848;23.034;2024-02-21T02:34:18;7.13;;;4.93;;
7989;SDS011;4040;42.848;23.034;2024-02-21T02:36:45;8.23;;;5.30;;
7989;SDS011;4040;42.848;23.034;2024-02-21T02:39:14;10.63;;;4.97;;
7989;SDS011;4040;42.848;23.034;2024-02-21T02:41:43;8.53;;;4.63;;
7989;SDS011;4040;42.848;23.034;2024-02-21T02:44:11;6.47;;;4.67;;
7989;SDS011;4040;42.848;23.034;2024-02-21T02:46:40;6.27;;;3.87;;
7989;SDS011;4040;42.848;23.034;2024-02-21T02:49:07;5.00;;;3.73;;
7989;SDS011;4040;42.848;23.034;2024-02-21T02:51:35;7.97;;;5.23;;
7989;SDS011;4040;42.848;23.034;2024-02-21T02:54:02;6.60;;;4.90;;
7989;SDS011;4040;42.848;23.034;2024-02-21T02:56:30;9.87;;;4.27;;
7989;SDS011;4040;42.848;23.034;2024-02-21T02:58:59;4.33;;;3.43;;
7989;SDS011;4040;42.848;23.034;2024-02-21T03:01:26;5.23;;;4.00;;
7989;SDS011;4040;42.848;23.034;2024-02-21T03:03:54;6.10;;;3.77;;
7989;SDS011;4040;42.848;23.034;2024-02-21T03:06:21;4.67;;;3.63;;
7989;SDS011;4040;42.848;23.034;2024-02-21T03:08:48;6.37;;;4.40;;
7989;SDS011;4040;42.848;23.034;2024-02-21T03:11:20;4.30;;;3.77;;
7989;SDS011;4040;42.848;23.034;2024-02-21T03:13:54;7.03;;;4.33;;
7989;SDS011;4040;42.848;23.034;2024-02-21T03:16:24;8.40;;;4.60;;
7989;SDS011;4040;42.848;23.034;2024-02-21T03:18:51;8.07;;;3.97;;
7989;SDS011;4040;42.848;23.034;2024-02-21T03:21:18;6.13;;;4.43;;
7989;SDS011;4040;42.848;23.034;2024-02-21T03:23:46;6.93;;;4.10;;
7989;SDS011;4040;42.848;23.034;2024-02-21T03:26:13;10.30;;;5.33;;
7989;SDS011;4040;42.848;23.034;2024-02-21T03:28:42;9.93;;;6.10;;
7989;SDS011;4040;42.848;23.034;2024-02-21T03:31:11;9.77;;;5.20;;
7989;SDS011;4040;42.848;23.034;2024-02-21T03:33:42;8.67;;;5.10;;
7989;SDS011;4040;42.848;23.034;2024-02-21T03:36:12;9.93;;;5.90;;
7989;SDS011;4040;42.848;23.034;2024-02-21T03:38:41;6.77;;;5.60;;
7989;SDS011;4040;42.848;23.034;2024-02-21T03:41:08;8.97;;;4.90;;
7989;SDS011;4040;42.848;23.034;2024-02-21T03:43:37;5.47;;;4.00;;
7989;SDS011;4040;42.848;23.034;2024-02-21T03:46:04;6.73;;;4.17;;
7989;SDS011;4040;42.848;23.034;2024-02-21T03:48:32;7.77;;;5.13;;
7989;SDS011;4040;42.848;23.034;2024-02-21T03:51:01;6.30;;;5.23;;
7989;SDS011;4040;42.848;23.034;2024-02-21T03:53:29;7.50;;;4.63;;
7989;SDS011;4040;42.848;23.034;2024-02-21T03:55:56;5.60;;;4.90;;
7989;SDS011;4040;42.848;23.034;2024-02-21T03:58:28;7.10;;;4.87;;
7989;SDS011;4040;42.848;23.034;2024-02-21T04:00:55;8.50;;;5.07;;
7989;SDS011;4040;42.848;23.034;2024-02-21T04:03:23;6.40;;;4.67;;
7989;SDS011;4040;42.848;23.034;2024-02-21T04:05:50;5.77;;;4.33;;
7989;SDS011;4040;42.848;23.034;2024-02-21T04:08:19;6.97;;;4.73;;
7989;SDS011;4040;42.848;23.034;2024-02-21T04:10:47;4.77;;;3.63;;
7989;SDS011;4040;42.848;23.034;2024-02-21T04:13:14;5.13;;;4.17;;
7989;SDS011;4040;42.848;23.034;2024-02-21T04:15:42;7.17;;;5.37;;
7989;SDS011;4040;42.848;23.034;2024-02-21T04:18:09;5.53;;;4.30;;
7989;SDS011;4040;42.848;23.034;2024-02-21T04:20:37;5.10;;;3.97;;
7989;SDS011;4040;42.848;23.034;2024-02-21T04:23:04;5.60;;;4.30;;
7989;SDS011;4040;42.848;23.034;2024-02-21T04:25:33;5.97;;;4.17;;
7989;SDS011;4040;42.848;23.034;2024-02-21T04:28:00;6.57;;;4.33;;
7989;SDS011;4040;42.848;23.034;2024-02-21T04:30:28;6.50;;;4.13;;
7989;SDS011;4040;42.848;23.034;2024-02-21T04:32:55;6.50;;;3.80;;
7989;SDS011;4040;42.848;23.034;2024-02-21T04:35:23;8.20;;;5.00;;
7989;SDS011;4040;42.848;23.034;2024-02-21T04:37:50;6.40;;;4.60;;
7989;SDS011;4040;42.848;23.034;2024-02-21T04:40:18;11.97;;;6.07;;
7989;SDS011;4040;42.848;23.034;2024-02-21T04:42:47;8.97;;;5.13;;
7989;SDS011;4040;42.848;23.034;2024-02-21T04:45:14;29.63;;;15.10;;
7989;SDS011;4040;42.848;23.034;2024-02-21T04:47:42;19.50;;;11.30;;
7989;SDS011;4040;42.848;23.034;2024-02-21T04:50:10;15.73;;;8.73;;
7989;SDS011;4040;42.848;23.034;2024-02-21T04:52:38;9.70;;;6.93;;
7989;SDS011;4040;42.848;23.034;2024-02-21T04:55:05;9.90;;;6.10;;
7989;SDS011;4040;42.848;23.034;2024-02-21T04:57:33;10.60;;;6.67;;
7989;SDS011;4040;42.848;23.034;2024-02-21T05:00:02;12.23;;;8.07;;
7989;SDS011;4040;42.848;23.034;2024-02-21T05:02:30;15.70;;;9.30;;
7989;SDS011;4040;42.848;23.034;2024-02-21T05:04:57;18.07;;;9.80;;
7989;SDS011;4040;42.848;23.034;2024-02-21T05:07:25;9.83;;;7.60;;
7989;SDS011;4040;42.848;23.034;2024-02-21T05:09:52;17.20;;;9.13;;
7989;SDS011;4040;42.848;23.034;2024-02-21T05:12:20;12.90;;;8.23;;
7989;SDS011;4040;42.848;23.034;2024-02-21T05:14:47;16.87;;;8.90;;
7989;SDS011;4040;42.848;23.034;2024-02-21T05:17:16;12.33;;;7.40;;
7989;SDS011;4040;42.848;23.034;2024-02-21T05:19:44;11.30;;;7.23;;
7989;SDS011;4040;42.848;23.034;2024-02-21T05:22:11;10.70;;;6.27;;
7989;SDS011;4040;42.848;23.034;2024-02-21T05:24:39;9.97;;;6.23;;
7989;SDS011;4040;42.848;23.034;2024-02-21T05:27:06;9.97;;;6.37;;
7989;SDS011;4040;42.848;23.034;2024-02-21T05:29:34;11.97;;;6.73;;
7989;SDS011;4040;42.848;23.034;2024-02-21T05:32:01;14.50;;;8.20;;
7989;SDS011;4040;42.848;23.034;2024-02-21T05:34:30;10.30;;;8.57;;
7989;SDS011;4040;42.848;23.034;2024-02-21T05:36:58;13.00;;;8.53;;
7989;SDS011;4040;42.848;23.034;2024-02-21T05:39:26;17.20;;;9.37;;
7989;SDS011;4040;42.848;23.034;2024-02-21T05:41:54;14.93;;;7.80;;
7989;SDS011;4040;42.848;23.034;2024-02-21T05:44:22;13.60;;;7.87;;
7989;SDS011;4040;42.848;23.034;2024-02-21T05:46:49;11.83;;;7.40;;
7989;SDS011;4040;42.848;23.034;2024-02-21T05:49:17;10.53;;;7.07;;
7989;SDS011;4040;42.848;23.034;2024-02-21T05:51:46;10.13;;;6.87;;
7989;SDS011;4040;42.848;23.034;2024-02-21T05:54:13;15.63;;;7.73;;
7989;SDS011;4040;42.848;23.034;2024-02-21T05:56:43;16.83;;;8.50;;
7989;SDS011;4040;42.848;23.034;2024-02-21T05:59:11;18.77;;;11.90;;
7989;SDS011;4040;42.848;23.034;2024-02-21T06:01:39;23.67;;;12.10;;
7989;SDS011;4040;42.848;23.034;2024-02-21T06:04:06;25.50;;;14.70;;
7989;SDS011;4040;42.848;23.034;2024-02-21T06:06:34;40.70;;;16.40;;
7989;SDS011;4040;42.848;23.034;2024-02-21T06:09:02;30.10;;;14.80;;
7989;SDS011;4040;42.848;23.034;2024-02-21T06:11:30;26.33;;;12.90;;
7989;SDS011;4040;42.848;23.034;2024-02-21T06:13:58;22.20;;;11.73;;
7989;SDS011;4040;42.848;23.034;2024-02-21T06:16:25;15.20;;;11.23;;
7989;SDS011;4040;42.848;23.034;2024-02-21T06:18:52;17.83;;;10.50;;
7989;SDS011;4040;42.848;23.034;2024-02-21T06:21:20;14.87;;;8.03;;
7989;SDS011;4040;42.848;23.034;2024-02-21T06:23:47;15.20;;;9.73;;
7989;SDS011;4040;42.848;23.034;2024-02-21T06:26:16;14.60;;;8.47;;
7989;SDS011;4040;42.848;23.034;2024-02-21T06:28:44;12.63;;;8.33;;
7989;SDS011;4040;42.848;23.034;2024-02-21T06:31:12;8.70;;;6.33;;
7989;SDS011;4040;42.848;23.034;2024-02-21T06:33:40;11.17;;;6.73;;
7989;SDS011;4040;42.848;23.034;2024-02-21T06:36:08;10.50;;;7.30;;
7989;SDS011;4040;42.848;23.034;2024-02-21T06:38:35;17.03;;;9.33;;
7989;SDS011;4040;42.848;23.034;2024-02-21T06:41:03;25.50;;;13.07;;
7989;SDS011;4040;42.848;23.034;2024-02-21T06:43:32;22.03;;;10.93;;
7989;SDS011;4040;42.848;23.034;2024-02-21T06:45:59;18.93;;;10.83;;
7989;SDS011;4040;42.848;23.034;2024-02-21T06:48:27;20.80;;;11.07;;
7989;SDS011;4040;42.848;23.034;2024-02-21T06:50:54;18.07;;;11.53;;
7989;SDS011;4040;42.848;23.034;2024-02-21T06:53:22;19.40;;;11.30;;
7989;SDS011;4040;42.848;23.034;2024-02-21T06:55:49;21.10;;;11.30;;
7989;SDS011;4040;42.848;23.034;2024-02-21T06:58:17;18.00;;;9.43;;
7989;SDS011;4040;42.848;23.034;2024-02-21T07:00:45;17.10;;;8.60;;
7989;SDS011;4040;42.848;23.034;2024-02-21T07:03:13;13.83;;;8.40;;
7989;SDS011;4040;42.848;23.034;2024-02-21T07:05:40;17.83;;;9.53;;
7989;SDS011;4040;42.848;23.034;2024-02-21T07:08:08;12.73;;;8.20;;
7989;SDS011;4040;42.848;23.034;2024-02-21T07:10:35;14.83;;;8.47;;
7989;SDS011;4040;42.848;23.034;2024-02-21T07:13:03;11.90;;;7.33;;
7989;SDS011;4040;42.848;23.034;2024-02-21T07:15:30;15.57;;;9.30;;
7989;SDS011;4040;42.848;23.034;2024-02-21T07:17:59;13.87;;;8.83;;
7989;SDS011;4040;42.848;23.034;2024-02-21T07:20:27;12.37;;;8.70;;
7989;SDS011;4040;42.848;23.034;2024-02-21T07:22:54;15.80;;;10.13;;
7989;SDS011;4040;42.848;23.034;2024-02-21T07:25:22;13.77;;;9.07;;
7989;SDS011;4040;42.848;23.034;2024-02-21T07:27:49;13.73;;;9.40;;
7989;SDS011;4040;42.848;23.034;2024-02-21T07:30:16;21.80;;;10.90;;
7989;SDS011;4040;42.848;23.034;2024-02-21T07:32:44;22.60;;;12.50;;
7989;SDS011;4040;42.848;23.034;2024-02-21T07:35:13;20.97;;;11.80;;
7989;SDS011;4040;42.848;23.034;2024-02-21T07:37:41;21.03;;;11.30;;
7989;SDS011;4040;42.848;23.034;2024-02-21T07:40:12;15.83;;;9.53;;
7989;SDS011;4040;42.848;23.034;2024-02-21T07:42:40;19.57;;;9.40;;
7989;SDS011;4040;42.848;23.034;2024-02-21T07:45:07;13.00;;;8.90;;
7989;SDS011;4040;42.848;23.034;2024-02-21T07:47:35;17.43;;;9.23;;
7989;SDS011;4040;42.848;23.034;2024-02-21T07:50:03;20.70;;;13.50;;
7989;SDS011;4040;42.848;23.034;2024-02-21T07:52:33;24.20;;;15.67;;
7989;SDS011;4040;42.848;23.034;2024-02-21T07:55:00;14.13;;;9.83;;
7989;SDS011;4040;42.848;23.034;2024-02-21T07:57:28;17.43;;;10.63;;
7989;SDS011;4040;42.848;23.034;2024-02-21T07:59:56;18.87;;;10.80;;
7989;SDS011;4040;42.848;23.034;2024-02-21T08:02:23;12.93;;;8.80;;
7989;SDS011;4040;42.848;23.034;2024-02-21T08:04:51;12.33;;;8.07;;
7989;SDS011;4040;42.848;23.034;2024-02-21T08:07:18;14.03;;;8.60;;
7989;SDS011;4040;42.848;23.034;2024-02-21T08:09:47;10.63;;;6.53;;
7989;SDS011;4040;42.848;23.034;2024-02-21T08:12:14;11.10;;;6.90;;
7989;SDS011;4040;42.848;23.034;2024-02-21T08:14:42;11.23;;;7.70;;
7989;SDS011;4040;42.848;23.034;2024-02-21T08:17:09;8.23;;;6.07;;
7989;SDS011;4040;42.848;23.034;2024-02-21T08:19:37;11.00;;;7.50;;
7989;SDS011;4040;42.848;23.034;2024-02-21T08:22:04;11.73;;;7.67;;
7989;SDS011;4040;42.848;23.034;2024-02-21T08:24:32;11.73;;;7.80;;
7989;SDS011;4040;42.848;23.034;2024-02-21T08:27:01;13.10;;;7.67;;
7989;SDS011;4040;42.848;23.034;2024-02-21T08:29:29;15.20;;;7.83;;
7989;SDS011;4040;42.848;23.034;2024-02-21T08:31:56;13.67;;;8.30;;
7989;SDS011;4040;42.848;23.034;2024-02-21T08:34:24;12.77;;;7.47;;
7989;SDS011;4040;42.848;23.034;2024-02-21T08:36:51;12.67;;;7.80;;
7989;SDS011;4040;42.848;23.034;2024-02-21T08:39:18;12.73;;;8.47;;
7989;SDS011;4040;42.848;23.034;2024-02-21T08:41:46;11.27;;;7.53;;
7989;SDS011;4040;42.848;23.034;2024-02-21T08:44:15;31.57;;;13.43;;
7989;SDS011;4040;42.848;23.034;2024-02-21T08:46:42;19.83;;;11.70;;
7989;SDS011;4040;42.848;23.034;2024-02-21T08:49:10;18.67;;;9.33;;
7989;SDS011;4040;42.848;23.034;2024-02-21T08:51:39;11.83;;;7.33;;
7989;SDS011;4040;42.848;23.034;2024-02-21T08:54:06;8.53;;;6.07;;
7989;SDS011;4040;42.848;23.034;2024-02-21T08:56:33;25.50;;;11.27;;
7989;SDS011;4040;42.848;23.034;2024-02-21T08:59:01;32.10;;;13.10;;
7989;SDS011;4040;42.848;23.034;2024-02-21T09:01:30;15.40;;;8.50;;
7989;SDS011;4040;42.848;23.034;2024-02-21T09:03:59;8.47;;;5.90;;
7989;SDS011;4040;42.848;23.034;2024-02-21T09:06:28;13.63;;;7.67;;
7989;SDS011;4040;42.848;23.034;2024-02-21T09:08:56;12.20;;;6.53;;
7989;SDS011;4040;42.848;23.034;2024-02-21T09:11:23;11.40;;;6.50;;
7989;SDS011;4040;42.848;23.034;2024-02-21T09:13:52;12.33;;;7.20;;
7989;SDS011;4040;42.848;23.034;2024-02-21T09:16:20;13.90;;;7.80;;
7989;SDS011;4040;42.848;23.034;2024-02-21T09:18:49;13.50;;;7.53;;
7989;SDS011;4040;42.848;23.034;2024-02-21T09:21:18;13.20;;;6.33;;
7989;SDS011;4040;42.848;23.034;2024-02-21T09:23:45;15.00;;;6.40;;
7989;SDS011;4040;42.848;23.034;2024-02-21T09:26:12;12.77;;;6.40;;
7989;SDS011;4040;42.848;23.034;2024-02-21T09:28:42;13.87;;;6.73;;
7989;SDS011;4040;42.848;23.034;2024-02-21T09:31:09;10.13;;;5.90;;
7989;SDS011;4040;42.848;23.034;2024-02-21T09:33:37;12.17;;;7.63;;
7989;SDS011;4040;42.848;23.034;2024-02-21T09:36:06;9.43;;;6.37;;
7989;SDS011;4040;42.848;23.034;2024-02-21T09:38:34;16.83;;;7.60;;
7989;SDS011;4040;42.848;23.034;2024-02-21T09:41:03;13.43;;;7.43;;
7989;SDS011;4040;42.848;23.034;2024-02-21T09:43:35;12.43;;;7.30;;
7989;SDS011;4040;42.848;23.034;2024-02-21T09:46:06;7.47;;;5.17;;
7989;SDS011;4040;42.848;23.034;2024-02-21T09:48:42;10.13;;;5.57;;
7989;SDS011;4040;42.848;23.034;2024-02-21T09:51:23;8.80;;;6.22;;
7989;SDS011;4040;42.848;23.034;2024-02-21T09:53:52;9.55;;;4.80;;
7989;SDS011;4040;42.848;23.034;2024-02-21T09:56:21;11.38;;;6.35;;
7989;SDS011;4040;42.848;23.034;2024-02-21T09:58:48;7.85;;;5.15;;
7989;SDS011;4040;42.848;23.034;2024-02-21T10:01:16;9.25;;;5.97;;
7989;SDS011;4040;42.848;23.034;2024-02-21T10:03:43;10.57;;;5.65;;
7989;SDS011;4040;42.848;23.034;2024-02-21T10:06:10;9.48;;;5.78;;
7989;SDS011;4040;42.848;23.034;2024-02-21T10:08:39;7.53;;;5.07;;
7989;SDS011;4040;42.848;23.034;2024-02-21T10:11:07;8.07;;;4.80;;
7989;SDS011;4040;42.848;23.034;2024-02-21T10:13:34;5.20;;;3.47;;
7989;SDS011;4040;42.848;23.034;2024-02-21T10:16:04;5.22;;;4.15;;
7989;SDS011;4040;42.848;23.034;2024-02-21T10:18:33;7.43;;;4.40;;
7989;SDS011;4040;42.848;23.034;2024-02-21T10:21:01;5.90;;;4.30;;
7989;SDS011;4040;42.848;23.034;2024-02-21T10:23:43;3.78;;;2.85;;
7989;SDS011;4040;42.848;23.034;2024-02-21T10:26:11;4.65;;;2.80;;
7989;SDS011;4040;42.848;23.034;2024-02-21T10:28:38;4.97;;;3.42;;
7989;SDS011;4040;42.848;23.034;2024-02-21T10:31:07;9.10;;;4.70;;
7989;SDS011;4040;42.848;23.034;2024-02-21T10:33:36;9.13;;;4.50;;
7989;SDS011;4040;42.848;23.034;2024-02-21T10:36:07;7.83;;;4.47;;
7989;SDS011;4040;42.848;23.034;2024-02-21T10:38:36;6.10;;;3.77;;
7989;SDS011;4040;42.848;23.034;2024-02-21T10:41:06;8.52;;;4.57;;
7989;SDS011;4040;42.848;23.034;2024-02-21T10:43:37;7.15;;;3.63;;
7989;SDS011;4040;42.848;23.034;2024-02-21T10:46:06;4.95;;;3.78;;
7989;SDS011;4040;42.848;23.034;2024-02-21T10:48:42;5.57;;;4.33;;
7989;SDS011;4040;42.848;23.034;2024-02-21T10:51:14;8.27;;;4.93;;
7989;SDS011;4040;42.848;23.034;2024-02-21T10:53:48;5.57;;;3.53;;
7989;SDS011;4040;42.848;23.034;2024-02-21T10:56:26;5.30;;;3.67;;
7989;SDS011;4040;42.848;23.034;2024-02-21T10:58:56;5.40;;;3.57;;
7989;SDS011;4040;42.848;23.034;2024-02-21T11:01:24;8.57;;;5.03;;
7989;SDS011;4040;42.848;23.034;2024-02-21T11:03:55;6.63;;;4.10;;
7989;SDS011;4040;42.848;23.034;2024-02-21T11:06:23;5.27;;;3.73;;
7989;SDS011;4040;42.848;23.034;2024-02-21T11:09:03;6.70;;;4.00;;
7989;SDS011;4040;42.848;23.034;2024-02-21T11:11:38;8.20;;;4.33;;
7989;SDS011;4040;42.848;23.034;2024-02-21T11:14:06;7.43;;;3.97;;
7989;SDS011;4040;42.848;23.034;2024-02-21T11:16:35;7.37;;;4.10;;
7989;SDS011;4040;42.848;23.034;2024-02-21T11:19:05;5.93;;;4.30;;
7989;SDS011;4040;42.848;23.034;2024-02-21T11:21:33;8.63;;;3.80;;
7989;SDS011;4040;42.848;23.034;2024-02-21T11:24:01;6.27;;;3.93;;
7989;SDS011;4040;42.848;23.034;2024-02-21T11:26:29;8.27;;;4.40;;
7989;SDS011;4040;42.848;23.034;2024-02-21T11:28:59;12.73;;;6.80;;
7989;SDS011;4040;42.848;23.034;2024-02-21T11:31:37;20.17;;;10.03;;
7989;SDS011;4040;42.848;23.034;2024-02-21T11:34:08;19.43;;;9.97;;
7989;SDS011;4040;42.848;23.034;2024-02-21T11:36:36;15.40;;;7.90;;
7989;SDS011;4040;42.848;23.034;2024-02-21T11:39:13;14.13;;;7.07;;
7989;SDS011;4040;42.848;23.034;2024-02-21T11:41:44;9.80;;;5.43;;
7989;SDS011;4040;42.848;23.034;2024-02-21T11:44:13;8.80;;;5.33;;
7989;SDS011;4040;42.848;23.034;2024-02-21T11:46:41;6.43;;;4.73;;
7989;SDS011;4040;42.848;23.034;2024-02-21T11:49:08;7.27;;;5.07;;
7989;SDS011;4040;42.848;23.034;2024-02-21T11:51:37;8.07;;;5.40;;
7989;SDS011;4040;42.848;23.034;2024-02-21T11:54:05;9.27;;;6.00;;
7989;SDS011;4040;42.848;23.034;2024-02-21T11:56:34;9.70;;;5.27;;
7989;SDS011;4040;42.848;23.034;2024-02-21T11:59:02;8.67;;;5.73;;
7989;SDS011;4040;42.848;23.034;2024-02-21T12:01:33;8.03;;;5.43;;
7989;SDS011;4040;42.848;23.034;2024-02-21T12:04:00;15.07;;;8.80;;
7989;SDS011;4040;42.848;23.034;2024-02-21T12:06:28;8.37;;;6.10;;
7989;SDS011;4040;42.848;23.034;2024-02-21T12:08:57;11.23;;;5.80;;
7989;SDS011;4040;42.848;23.034;2024-02-21T12:11:25;14.30;;;7.53;;
7989;SDS011;4040;42.848;23.034;2024-02-21T12:13:59;8.43;;;5.07;;
7989;SDS011;4040;42.848;23.034;2024-02-21T12:16:28;10.10;;;5.47;;
7989;SDS011;4040;42.848;23.034;2024-02-21T12:18:58;7.17;;;5.43;;
7989;SDS011;4040;42.848;23.034;2024-02-21T12:21:26;7.57;;;3.93;;
7989;SDS011;4040;42.848;23.034;2024-02-21T12:23:58;6.27;;;4.27;;
7989;SDS011;4040;42.848;23.034;2024-02-21T12:26:25;5.23;;;3.83;;
7989;SDS011;4040;42.848;23.034;2024-02-21T12:28:53;8.17;;;4.13;;
7989;SDS011;4040;42.848;23.034;2024-02-21T12:31:20;5.67;;;3.80;;
7989;SDS011;4040;42.848;23.034;2024-02-21T12:33:48;5.57;;;4.67;;
7989;SDS011;4040;42.848;23.034;2024-02-21T12:36:19;5.23;;;4.03;;
7989;SDS011;4040;42.848;23.034;2024-02-21T12:38:46;7.70;;;4.60;;
7989;SDS011;4040;42.848;23.034;2024-02-21T12:41:14;7.60;;;4.50;;
7989;SDS011;4040;42.848;23.034;2024-02-21T12:43:41;8.30;;;5.13;;
7989;SDS011;4040;42.848;23.034;2024-02-21T12:46:09;7.80;;;5.07;;
7989;SDS011;4040;42.848;23.034;2024-02-21T12:48:36;7.70;;;5.20;;
7989;SDS011;4040;42.848;23.034;2024-02-21T12:51:05;6.10;;;4.17;;
7989;SDS011;4040;42.848;23.034;2024-02-21T12:53:34;6.27;;;4.17;;
7989;SDS011;4040;42.848;23.034;2024-02-21T12:56:01;7.60;;;4.00;;
7989;SDS011;4040;42.848;23.034;2024-02-21T12:58:30;5.70;;;4.10;;
7989;SDS011;4040;42.848;23.034;2024-02-21T13:00:58;7.60;;;4.67;;
7989;SDS011;4040;42.848;23.034;2024-02-21T13:03:25;5.30;;;3.53;;
7989;SDS011;4040;42.848;23.034;2024-02-21T13:05:52;5.87;;;3.97;;
7989;SDS011;4040;42.848;23.034;2024-02-21T13:08:20;10.17;;;4.43;;
7989;SDS011;4040;42.848;23.034;2024-02-21T13:10:49;6.50;;;4.60;;
7989;SDS011;4040;42.848;23.034;2024-02-21T13:13:17;8.80;;;4.20;;
7989;SDS011;4040;42.848;23.034;2024-02-21T13:15:44;5.53;;;4.17;;
7989;SDS011;4040;42.848;23.034;2024-02-21T13:18:12;5.97;;;4.00;;
7989;SDS011;4040;42.848;23.034;2024-02-21T13:20:39;6.87;;;4.37;;
7989;SDS011;4040;42.848;23.034;2024-02-21T13:25:54;7.17;;;4.43;;
7989;SDS011;4040;42.848;23.034;2024-02-21T13:28:21;5.17;;;4.07;;
7989;SDS011;4040;42.848;23.034;2024-02-21T13:30:48;9.63;;;4.57;;
7989;SDS011;4040;42.848;23.034;2024-02-21T13:33:16;7.40;;;3.70;;
7989;SDS011;4040;42.848;23.034;2024-02-21T13:35:44;6.73;;;4.40;;
7989;SDS011;4040;42.848;23.034;2024-02-21T13:38:11;5.20;;;3.63;;
7989;SDS011;4040;42.848;23.034;2024-02-21T13:40:40;6.27;;;3.60;;
7989;SDS011;4040;42.848;23.034;2024-02-21T13:43:09;6.13;;;4.20;;
7989;SDS011;4040;42.848;23.034;2024-02-21T13:45:37;6.10;;;3.33;;
7989;SDS011;4040;42.848;23.034;2024-02-21T13:48:07;4.77;;;3.30;;
7989;SDS011;4040;42.848;23.034;2024-02-21T13:50:37;6.73;;;4.37;;
7989;SDS011;4040;42.848;23.034;2024-02-21T13:53:08;4.73;;;3.53;;
7989;SDS011;4040;42.848;23.034;2024-02-21T13:55:36;7.17;;;3.67;;
7989;SDS011;4040;42.848;23.034;2024-02-21T13:58:03;8.63;;;3.53;;
7989;SDS011;4040;42.848;23.034;2024-02-21T14:00:32;12.30;;;3.60;;
7989;SDS011;4040;42.848;23.034;2024-02-21T14:03:01;7.87;;;3.53;;
7989;SDS011;4040;42.848;23.034;2024-02-21T14:05:28;5.97;;;4.00;;
7989;SDS011;4040;42.848;23.034;2024-02-21T14:07:56;12.20;;;4.20;;
7989;SDS011;4040;42.848;23.034;2024-02-21T14:10:23;5.07;;;3.50;;
7989;SDS011;4040;42.848;23.034;2024-02-21T14:12:51;6.10;;;3.57;;
7989;SDS011;4040;42.848;23.034;2024-02-21T14:15:18;7.63;;;4.10;;
7989;SDS011;4040;42.848;23.034;2024-02-21T14:17:47;4.77;;;3.83;;
7989;SDS011;4040;42.848;23.034;2024-02-21T14:20:15;8.53;;;4.93;;
7989;SDS011;4040;42.848;23.034;2024-02-21T14:22:42;8.10;;;5.07;;
7989;SDS011;4040;42.848;23.034;2024-02-21T14:25:10;5.93;;;4.03;;
7989;SDS011;4040;42.848;23.034;2024-02-21T14:27:37;6.00;;;3.53;;
7989;SDS011;4040;42.848;23.034;2024-02-21T14:30:05;4.60;;;3.90;;
7989;SDS011;4040;42.848;23.034;2024-02-21T14:32:36;7.20;;;4.77;;
7989;SDS011;4040;42.848;23.034;2024-02-21T14:35:05;10.20;;;4.83;;
7989;SDS011;4040;42.848;23.034;2024-02-21T14:37:32;8.37;;;4.30;;
7989;SDS011;4040;42.848;23.034;2024-02-21T14:40:00;15.00;;;5.13;;
7989;SDS011;4040;42.848;23.034;2024-02-21T14:42:28;11.13;;;4.53;;
7989;SDS011;4040;42.848;23.034;2024-02-21T14:44:55;6.87;;;4.30;;
7989;SDS011;4040;42.848;23.034;2024-02-21T14:47:29;8.27;;;4.80;;
7989;SDS011;4040;42.848;23.034;2024-02-21T14:49:57;7.67;;;4.47;;
7989;SDS011;4040;42.848;23.034;2024-02-21T14:52:26;9.57;;;5.17;;
7989;SDS011;4040;42.848;23.034;2024-02-21T14:54:54;8.30;;;5.10;;
7989;SDS011;4040;42.848;23.034;2024-02-21T14:57:22;6.63;;;4.73;;
7989;SDS011;4040;42.848;23.034;2024-02-21T14:59:50;4.93;;;3.30;;
7989;SDS011;4040;42.848;23.034;2024-02-21T15:02:21;8.63;;;4.90;;
7989;SDS011;4040;42.848;23.034;2024-02-21T15:04:49;8.57;;;5.50;;